Alexanr Zhitnik — EMBN — position and weather

sailwx.info

Track history (hours):
 
Tides and Currents Weather Stations Pressure Air Temp Water Temp Dewpoint Dewpoint Depression Visibility Wind Speed Wind Dir Waves Ship Positions

Alexanr Zhitnik

Last reported at 2014-Aug-13 17:33 UTC. Time now 2014-Aug-22 11:54 UTC.
Position N 46°35' E 031°33'.
Warning: this ship's position is 8 days out of date.

Length 85 m; draft 1.8 m.

Type: Cargo ship. MMSI: 272089600.

Date/timePositionNaut miles runAvg speedWind from/ knotsBaromVisibWave heightAir tempDewpointWater temp
2014-Aug-13 17:33N 46°35' E 031°33'5 5.0
2014-Aug-13 16:33N 46°35' E 031°26'5 4.9
2014-Aug-13 15:33N 46°35' E 031°19'5 4.7
2014-Aug-13 14:28N 46°35' E 031°11'4 4.6
2014-Aug-13 13:30N 46°34' E 031°05'5 5.0
2014-Aug-13 12:32N 46°33' E 030°58'5 4.9
2014-Aug-13 11:34N 46°31' E 030°52'5 4.9
2014-Aug-13 10:29N 46°31' E 030°44'0 0.0
2014-Aug-13 09:33N 46°31' E 030°44'0 0.0
2014-Aug-13 07:15N 46°31' E 030°44'0 0.0
2014-Aug-13 05:30N 46°31' E 030°44'0 0.0
2014-Aug-13 04:33N 46°31' E 030°44'0 0.0
2014-Aug-13 03:33N 46°31' E 030°44'0 0.0
2014-Aug-13 02:33N 46°31' E 030°44'0 0.0
2014-Aug-13 01:33N 46°31' E 030°44'0 0.0
2014-Aug-13 00:33N 46°31' E 030°44'0 0.0
2014-Aug-12 23:33N 46°31' E 030°44'0 0.0
2014-Aug-12 22:33N 46°31' E 030°44'0 0.0
2014-Aug-12 21:33N 46°31' E 030°44'0 0.0
2014-Aug-12 20:33N 46°31' E 030°44'0 0.0
2014-Aug-12 19:33N 46°31' E 030°44'0 0.0
2014-Aug-12 18:33N 46°31' E 030°44'0 0.0
2014-Aug-12 17:33N 46°31' E 030°44'0 0.0
2014-Aug-12 16:33N 46°31' E 030°44'0 0.0
2014-Aug-12 15:22N 46°31' E 030°44'0 0.0
2014-Aug-12 14:33N 46°31' E 030°44'13 1.2
2014-Aug-12 03:27N 46°34' E 031°02'8 5.8
2014-Aug-12 02:09N 46°35' E 031°13'9 5.9
2014-Aug-12 00:33N 46°35' E 031°27'6 6.1
2014-Aug-11 23:33N 46°35' E 031°36'6 6.3
2014-Aug-11 22:33N 46°36' E 031°45'6 6.0
2014-Aug-11 21:33N 46°34' E 031°54'6 5.7
2014-Aug-11 20:33N 46°32' E 032°01'7 5.6
2014-Aug-11 19:17N 46°33' E 032°12'4 5.9
2014-Aug-11 18:33N 46°33' E 032°18'  
Track history (hours):
 
Tides and Currents Weather Stations Pressure Air Temp Water Temp Dewpoint Dewpoint Depression Visibility Wind Speed Wind Dir Waves Ship Positions

Alexanr Zhitnik

Last reported at 2014-Aug-13 17:33 UTC. Time now 2014-Aug-22 11:54 UTC.
Position N 46°35' E 031°33'.
Warning: this ship's position is 8 days out of date.

Length 85 m; draft 1.8 m.

Type: Cargo ship. MMSI: 272089600.

Date/timePositionNaut miles runAvg speedWind from/ knotsBaromVisibWave heightAir tempDewpointWater temp
2014-Aug-13 17:33N 46°35' E 031°33'5 5.0
2014-Aug-13 16:33N 46°35' E 031°26'5 4.9
2014-Aug-13 15:33N 46°35' E 031°19'5 4.7
2014-Aug-13 14:28N 46°35' E 031°11'4 4.6
2014-Aug-13 13:30N 46°34' E 031°05'5 5.0
2014-Aug-13 12:32N 46°33' E 030°58'5 4.9
2014-Aug-13 11:34N 46°31' E 030°52'5 4.9
2014-Aug-13 10:29N 46°31' E 030°44'0 0.0
2014-Aug-13 09:33N 46°31' E 030°44'0 0.0
2014-Aug-13 07:15N 46°31' E 030°44'0 0.0
2014-Aug-13 05:30N 46°31' E 030°44'0 0.0
2014-Aug-13 04:33N 46°31' E 030°44'0 0.0
2014-Aug-13 03:33N 46°31' E 030°44'0 0.0
2014-Aug-13 02:33N 46°31' E 030°44'0 0.0
2014-Aug-13 01:33N 46°31' E 030°44'0 0.0
2014-Aug-13 00:33N 46°31' E 030°44'0 0.0
2014-Aug-12 23:33N 46°31' E 030°44'0 0.0
2014-Aug-12 22:33N 46°31' E 030°44'0 0.0
2014-Aug-12 21:33N 46°31' E 030°44'0 0.0
2014-Aug-12 20:33N 46°31' E 030°44'0 0.0
2014-Aug-12 19:33N 46°31' E 030°44'0 0.0
2014-Aug-12 18:33N 46°31' E 030°44'0 0.0
2014-Aug-12 17:33N 46°31' E 030°44'0 0.0
2014-Aug-12 16:33N 46°31' E 030°44'0 0.0
2014-Aug-12 15:22N 46°31' E 030°44'0 0.0
2014-Aug-12 14:33N 46°31' E 030°44'13 1.2
2014-Aug-12 03:27N 46°34' E 031°02'8 5.8
2014-Aug-12 02:09N 46°35' E 031°13'9 5.9
2014-Aug-12 00:33N 46°35' E 031°27'6 6.1
2014-Aug-11 23:33N 46°35' E 031°36'6 6.3
2014-Aug-11 22:33N 46°36' E 031°45'6 6.0
2014-Aug-11 21:33N 46°34' E 031°54'6 5.7
2014-Aug-11 20:33N 46°32' E 032°01'7 5.6
2014-Aug-11 19:17N 46°33' E 032°12'4 5.9
2014-Aug-11 18:33N 46°33' E 032°18'  

Dump ship's entire track history